sensor_id;sensor_type;location;lat;lon;timestamp;temperature;humidity
41884;DHT22;27566;50.930;5.328;2023-11-21T00:01:59;10.80;91.20
41884;DHT22;27566;50.930;5.328;2023-11-21T00:04:25;10.80;91.40
41884;DHT22;27566;50.930;5.328;2023-11-21T00:06:53;10.90;91.40
41884;DHT22;27566;50.930;5.328;2023-11-21T00:09:19;10.90;91.20
41884;DHT22;27566;50.930;5.328;2023-11-21T00:11:45;10.90;91.50
41884;DHT22;27566;50.930;5.328;2023-11-21T00:14:11;10.90;91.40
41884;DHT22;27566;50.930;5.328;2023-11-21T00:16:37;11.00;91.20
41884;DHT22;27566;50.930;5.328;2023-11-21T00:19:03;11.00;91.40
41884;DHT22;27566;50.930;5.328;2023-11-21T00:21:28;11.00;91.10
41884;DHT22;27566;50.930;5.328;2023-11-21T00:23:54;11.00;91.40
41884;DHT22;27566;50.930;5.328;2023-11-21T00:26:20;11.10;91.50
41884;DHT22;27566;50.930;5.328;2023-11-21T00:28:45;11.10;91.30
41884;DHT22;27566;50.930;5.328;2023-11-21T00:31:11;11.10;91.20
41884;DHT22;27566;50.930;5.328;2023-11-21T00:33:37;11.10;91.20
41884;DHT22;27566;50.930;5.328;2023-11-21T00:36:03;11.10;91.30
41884;DHT22;27566;50.930;5.328;2023-11-21T00:38:29;11.20;91.30
41884;DHT22;27566;50.930;5.328;2023-11-21T00:40:55;11.10;91.20
41884;DHT22;27566;50.930;5.328;2023-11-21T00:43:24;11.10;91.20
41884;DHT22;27566;50.930;5.328;2023-11-21T00:45:50;11.20;91.20
41884;DHT22;27566;50.930;5.328;2023-11-21T00:48:16;11.20;90.80
41884;DHT22;27566;50.930;5.328;2023-11-21T00:53:09;11.10;90.90
41884;DHT22;27566;50.930;5.328;2023-11-21T00:55:37;11.20;91.20
41884;DHT22;27566;50.930;5.328;2023-11-21T00:58:06;11.20;91.20
41884;DHT22;27566;50.930;5.328;2023-11-21T01:00:33;11.10;91.20
41884;DHT22;27566;50.930;5.328;2023-11-21T01:02:59;11.10;90.80
41884;DHT22;27566;50.930;5.328;2023-11-21T01:05:25;11.20;91.10
41884;DHT22;27566;50.930;5.328;2023-11-21T01:07:52;11.10;91.10
41884;DHT22;27566;50.930;5.328;2023-11-21T01:10:18;11.10;91.20
41884;DHT22;27566;50.930;5.328;2023-11-21T01:12:44;11.10;91.20
41884;DHT22;27566;50.930;5.328;2023-11-21T01:15:10;11.20;91.20
41884;DHT22;27566;50.930;5.328;2023-11-21T01:17:38;11.10;91.20
41884;DHT22;27566;50.930;5.328;2023-11-21T01:20:04;11.10;91.20
41884;DHT22;27566;50.930;5.328;2023-11-21T01:22:37;11.20;91.50
41884;DHT22;27566;50.930;5.328;2023-11-21T01:25:03;11.20;90.90
41884;DHT22;27566;50.930;5.328;2023-11-21T01:27:36;11.20;90.90
41884;DHT22;27566;50.930;5.328;2023-11-21T01:30:03;11.20;90.80
41884;DHT22;27566;50.930;5.328;2023-11-21T01:32:30;11.30;90.90
41884;DHT22;27566;50.930;5.328;2023-11-21T01:35:06;11.30;90.80
41884;DHT22;27566;50.930;5.328;2023-11-21T01:37:35;11.30;90.80
41884;DHT22;27566;50.930;5.328;2023-11-21T01:40:01;11.40;90.80
41884;DHT22;27566;50.930;5.328;2023-11-21T01:42:27;11.30;91.30
41884;DHT22;27566;50.930;5.328;2023-11-21T01:47:29;11.30;90.80
41884;DHT22;27566;50.930;5.328;2023-11-21T01:49:55;11.40;91.10
41884;DHT22;27566;50.930;5.328;2023-11-21T01:52:21;11.30;90.80
41884;DHT22;27566;50.930;5.328;2023-11-21T01:54:47;11.40;91.10
41884;DHT22;27566;50.930;5.328;2023-11-21T01:57:13;11.40;91.00
41884;DHT22;27566;50.930;5.328;2023-11-21T01:59:41;11.50;91.00
41884;DHT22;27566;50.930;5.328;2023-11-21T02:02:08;11.50;90.60
41884;DHT22;27566;50.930;5.328;2023-11-21T02:04:35;11.40;90.90
41884;DHT22;27566;50.930;5.328;2023-11-21T02:07:04;11.40;90.80
41884;DHT22;27566;50.930;5.328;2023-11-21T02:09:33;11.40;90.80
41884;DHT22;27566;50.930;5.328;2023-11-21T02:12:00;11.30;90.80
41884;DHT22;27566;50.930;5.328;2023-11-21T02:14:27;11.30;90.80
41884;DHT22;27566;50.930;5.328;2023-11-21T02:16:54;11.30;90.90
41884;DHT22;27566;50.930;5.328;2023-11-21T02:19:21;11.30;90.60
41884;DHT22;27566;50.930;5.328;2023-11-21T02:21:56;11.30;90.90
41884;DHT22;27566;50.930;5.328;2023-11-21T02:24:28;11.30;90.90
41884;DHT22;27566;50.930;5.328;2023-11-21T02:26:54;11.20;90.90
41884;DHT22;27566;50.930;5.328;2023-11-21T02:29:21;11.30;90.70
41884;DHT22;27566;50.930;5.328;2023-11-21T02:31:55;11.30;90.60
41884;DHT22;27566;50.930;5.328;2023-11-21T02:34:22;11.20;90.90
41884;DHT22;27566;50.930;5.328;2023-11-21T02:36:48;11.20;90.60
41884;DHT22;27566;50.930;5.328;2023-11-21T02:39:18;11.20;90.70
41884;DHT22;27566;50.930;5.328;2023-11-21T02:41:44;11.30;90.70
41884;DHT22;27566;50.930;5.328;2023-11-21T02:44:10;11.20;90.90
41884;DHT22;27566;50.930;5.328;2023-11-21T02:46:37;11.20;91.00
41884;DHT22;27566;50.930;5.328;2023-11-21T02:49:03;11.30;91.00
41884;DHT22;27566;50.930;5.328;2023-11-21T02:51:32;11.30;90.70
41884;DHT22;27566;50.930;5.328;2023-11-21T02:53:57;11.30;90.70
41884;DHT22;27566;50.930;5.328;2023-11-21T02:56:28;11.30;90.70
41884;DHT22;27566;50.930;5.328;2023-11-21T02:58:57;11.30;91.00
41884;DHT22;27566;50.930;5.328;2023-11-21T03:01:23;11.40;91.00
41884;DHT22;27566;50.930;5.328;2023-11-21T03:03:49;11.40;91.10
41884;DHT22;27566;50.930;5.328;2023-11-21T03:06:20;11.50;91.00
41884;DHT22;27566;50.930;5.328;2023-11-21T03:08:46;11.40;91.00
41884;DHT22;27566;50.930;5.328;2023-11-21T03:11:13;11.40;90.60
41884;DHT22;27566;50.930;5.328;2023-11-21T03:13:42;11.50;90.60
41884;DHT22;27566;50.930;5.328;2023-11-21T03:16:09;11.40;90.60
41884;DHT22;27566;50.930;5.328;2023-11-21T03:18:36;11.40;90.60
41884;DHT22;27566;50.930;5.328;2023-11-21T03:21:03;11.50;90.60
41884;DHT22;27566;50.930;5.328;2023-11-21T03:23:29;11.40;90.80
41884;DHT22;27566;50.930;5.328;2023-11-21T03:28:21;11.40;90.50
41884;DHT22;27566;50.930;5.328;2023-11-21T03:30:47;11.40;90.80
41884;DHT22;27566;50.930;5.328;2023-11-21T03:33:13;11.40;90.80
41884;DHT22;27566;50.930;5.328;2023-11-21T03:35:39;11.40;90.80
41884;DHT22;27566;50.930;5.328;2023-11-21T03:38:07;11.40;90.70
41884;DHT22;27566;50.930;5.328;2023-11-21T03:40:33;11.40;90.70
41884;DHT22;27566;50.930;5.328;2023-11-21T03:42:59;11.40;90.70
41884;DHT22;27566;50.930;5.328;2023-11-21T03:45:25;11.40;90.50
41884;DHT22;27566;50.930;5.328;2023-11-21T03:47:51;11.40;90.80
41884;DHT22;27566;50.930;5.328;2023-11-21T03:50:16;11.40;90.70
41884;DHT22;27566;50.930;5.328;2023-11-21T03:52:42;11.40;90.40
41884;DHT22;27566;50.930;5.328;2023-11-21T03:55:09;11.40;90.60
41884;DHT22;27566;50.930;5.328;2023-11-21T03:57:36;11.40;90.60
41884;DHT22;27566;50.930;5.328;2023-11-21T04:00:03;11.30;90.30
41884;DHT22;27566;50.930;5.328;2023-11-21T04:02:34;11.30;90.60
41884;DHT22;27566;50.930;5.328;2023-11-21T04:05:00;11.20;90.30
41884;DHT22;27566;50.930;5.328;2023-11-21T04:07:26;11.30;90.60
41884;DHT22;27566;50.930;5.328;2023-11-21T04:09:52;11.30;90.70
41884;DHT22;27566;50.930;5.328;2023-11-21T04:12:19;11.40;90.40
41884;DHT22;27566;50.930;5.328;2023-11-21T04:14:45;11.30;90.70
41884;DHT22;27566;50.930;5.328;2023-11-21T04:17:11;11.30;90.60
41884;DHT22;27566;50.930;5.328;2023-11-21T04:19:37;11.30;90.60
41884;DHT22;27566;50.930;5.328;2023-11-21T04:22:03;11.40;90.60
41884;DHT22;27566;50.930;5.328;2023-11-21T04:24:29;11.30;90.30
41884;DHT22;27566;50.930;5.328;2023-11-21T04:26:55;11.30;90.60
41884;DHT22;27566;50.930;5.328;2023-11-21T04:29:21;11.40;90.60
41884;DHT22;27566;50.930;5.328;2023-11-21T04:31:48;11.30;90.20
41884;DHT22;27566;50.930;5.328;2023-11-21T04:34:15;11.30;90.40
41884;DHT22;27566;50.930;5.328;2023-11-21T04:36:41;11.30;90.20
41884;DHT22;27566;50.930;5.328;2023-11-21T04:39:07;11.30;90.40
41884;DHT22;27566;50.930;5.328;2023-11-21T04:41:33;11.30;90.40
41884;DHT22;27566;50.930;5.328;2023-11-21T04:43:59;11.20;90.40
41884;DHT22;27566;50.930;5.328;2023-11-21T04:46:26;11.20;90.50
41884;DHT22;27566;50.930;5.328;2023-11-21T04:48:52;11.20;90.60
41884;DHT22;27566;50.930;5.328;2023-11-21T04:51:18;11.10;90.40
41884;DHT22;27566;50.930;5.328;2023-11-21T04:53:44;11.00;90.70
41884;DHT22;27566;50.930;5.328;2023-11-21T04:56:09;11.00;90.50
41884;DHT22;27566;50.930;5.328;2023-11-21T04:58:35;11.00;90.90
41884;DHT22;27566;50.930;5.328;2023-11-21T05:01:02;11.00;90.80
41884;DHT22;27566;50.930;5.328;2023-11-21T05:03:28;11.00;90.80
41884;DHT22;27566;50.930;5.328;2023-11-21T05:05:55;11.00;90.60
41884;DHT22;27566;50.930;5.328;2023-11-21T05:08:21;10.90;90.90
41884;DHT22;27566;50.930;5.328;2023-11-21T05:10:48;11.00;90.90
41884;DHT22;27566;50.930;5.328;2023-11-21T05:13:15;11.00;91.00
41884;DHT22;27566;50.930;5.328;2023-11-21T05:15:43;11.00;91.00
41884;DHT22;27566;50.930;5.328;2023-11-21T05:18:09;11.00;91.00
41884;DHT22;27566;50.930;5.328;2023-11-21T05:20:36;11.10;90.80
41884;DHT22;27566;50.930;5.328;2023-11-21T05:23:03;11.10;90.70
41884;DHT22;27566;50.930;5.328;2023-11-21T05:25:30;11.10;91.00
41884;DHT22;27566;50.930;5.328;2023-11-21T05:27:56;11.20;90.60
41884;DHT22;27566;50.930;5.328;2023-11-21T05:30:24;11.20;90.90
41884;DHT22;27566;50.930;5.328;2023-11-21T05:32:50;11.20;90.50
41884;DHT22;27566;50.930;5.328;2023-11-21T05:35:16;11.10;90.80
41884;DHT22;27566;50.930;5.328;2023-11-21T05:37:44;11.10;90.50
41884;DHT22;27566;50.930;5.328;2023-11-21T05:40:11;11.10;90.80
41884;DHT22;27566;50.930;5.328;2023-11-21T05:42:39;11.10;90.80
41884;DHT22;27566;50.930;5.328;2023-11-21T05:45:06;11.20;90.50
41884;DHT22;27566;50.930;5.328;2023-11-21T05:47:40;11.10;90.70
41884;DHT22;27566;50.930;5.328;2023-11-21T05:50:07;11.10;90.70
41884;DHT22;27566;50.930;5.328;2023-11-21T05:52:36;11.10;90.70
41884;DHT22;27566;50.930;5.328;2023-11-21T05:55:03;11.10;90.70
41884;DHT22;27566;50.930;5.328;2023-11-21T05:57:34;11.20;90.70
41884;DHT22;27566;50.930;5.328;2023-11-21T06:00:09;12.30;90.70
41884;DHT22;27566;50.930;5.328;2023-11-21T06:02:39;11.20;90.70
41884;DHT22;27566;50.930;5.328;2023-11-21T06:05:09;11.10;90.30
41884;DHT22;27566;50.930;5.328;2023-11-21T06:07:34;11.20;90.40
41884;DHT22;27566;50.930;5.328;2023-11-21T06:10:04;11.20;90.30
41884;DHT22;27566;50.930;5.328;2023-11-21T06:12:38;11.20;90.60
41884;DHT22;27566;50.930;5.328;2023-11-21T06:15:06;11.30;90.40
41884;DHT22;27566;50.930;5.328;2023-11-21T06:17:36;11.20;90.70
41884;DHT22;27566;50.930;5.328;2023-11-21T06:20:03;11.30;90.40
41884;DHT22;27566;50.930;5.328;2023-11-21T06:22:38;11.30;90.70
41884;DHT22;27566;50.930;5.328;2023-11-21T06:25:04;11.30;90.40
41884;DHT22;27566;50.930;5.328;2023-11-21T06:27:36;11.30;90.40
41884;DHT22;27566;50.930;5.328;2023-11-21T06:30:02;11.30;90.40
41884;DHT22;27566;50.930;5.328;2023-11-21T06:32:29;11.30;90.70
41884;DHT22;27566;50.930;5.328;2023-11-21T06:34:58;11.40;90.70
41884;DHT22;27566;50.930;5.328;2023-11-21T06:37:28;11.40;90.70
41884;DHT22;27566;50.930;5.328;2023-11-21T06:39:54;11.40;90.70
41884;DHT22;27566;50.930;5.328;2023-11-21T06:42:22;11.40;90.70
41884;DHT22;27566;50.930;5.328;2023-11-21T06:44:49;11.40;90.80
41884;DHT22;27566;50.930;5.328;2023-11-21T06:47:36;11.40;90.40
41884;DHT22;27566;50.930;5.328;2023-11-21T06:50:03;11.40;90.30
41884;DHT22;27566;50.930;5.328;2023-11-21T06:52:29;11.40;90.20
41884;DHT22;27566;50.930;5.328;2023-11-21T06:54:55;11.40;90.50
41884;DHT22;27566;50.930;5.328;2023-11-21T06:57:23;11.40;90.50
41884;DHT22;27566;50.930;5.328;2023-11-21T06:59:49;11.40;90.60
41884;DHT22;27566;50.930;5.328;2023-11-21T07:02:16;11.40;90.60
41884;DHT22;27566;50.930;5.328;2023-11-21T07:04:47;11.40;90.60
41884;DHT22;27566;50.930;5.328;2023-11-21T07:07:13;11.40;90.60
41884;DHT22;27566;50.930;5.328;2023-11-21T07:09:39;11.40;90.40
41884;DHT22;27566;50.930;5.328;2023-11-21T07:12:05;11.40;90.60
41884;DHT22;27566;50.930;5.328;2023-11-21T07:14:34;11.40;90.70
41884;DHT22;27566;50.930;5.328;2023-11-21T07:17:00;11.50;90.60
41884;DHT22;27566;50.930;5.328;2023-11-21T07:19:25;11.50;90.40
41884;DHT22;27566;50.930;5.328;2023-11-21T07:21:52;11.50;90.70
41884;DHT22;27566;50.930;5.328;2023-11-21T07:24:18;11.60;90.60
41884;DHT22;27566;50.930;5.328;2023-11-21T07:26:44;11.60;90.70
41884;DHT22;27566;50.930;5.328;2023-11-21T07:29:10;11.60;90.80
41884;DHT22;27566;50.930;5.328;2023-11-21T07:31:37;11.60;90.80
41884;DHT22;27566;50.930;5.328;2023-11-21T07:34:04;11.60;90.80
41884;DHT22;27566;50.930;5.328;2023-11-21T07:36:29;11.70;90.60
41884;DHT22;27566;50.930;5.328;2023-11-21T07:38:55;11.70;90.60
41884;DHT22;27566;50.930;5.328;2023-11-21T07:41:21;11.70;90.60
41884;DHT22;27566;50.930;5.328;2023-11-21T07:43:47;11.80;90.70
41884;DHT22;27566;50.930;5.328;2023-11-21T07:46:14;11.90;90.40
41884;DHT22;27566;50.930;5.328;2023-11-21T07:48:41;11.80;91.00
41884;DHT22;27566;50.930;5.328;2023-11-21T07:51:11;11.90;90.60
41884;DHT22;27566;50.930;5.328;2023-11-21T07:53:38;11.90;90.50
41884;DHT22;27566;50.930;5.328;2023-11-21T07:56:08;11.90;90.50
41884;DHT22;27566;50.930;5.328;2023-11-21T07:58:35;12.00;90.10
41884;DHT22;27566;50.930;5.328;2023-11-21T08:01:05;12.00;90.40
41884;DHT22;27566;50.930;5.328;2023-11-21T08:03:31;12.00;90.30
41884;DHT22;27566;50.930;5.328;2023-11-21T08:05:58;12.00;90.30
41884;DHT22;27566;50.930;5.328;2023-11-21T08:08:24;11.90;89.90
41884;DHT22;27566;50.930;5.328;2023-11-21T08:10:51;12.00;90.20
41884;DHT22;27566;50.930;5.328;2023-11-21T08:13:27;12.00;90.20
41884;DHT22;27566;50.930;5.328;2023-11-21T08:15:57;12.10;90.20
41884;DHT22;27566;50.930;5.328;2023-11-21T08:18:29;12.10;90.20
41884;DHT22;27566;50.930;5.328;2023-11-21T08:20:55;12.10;90.20
41884;DHT22;27566;50.930;5.328;2023-11-21T08:23:22;12.20;89.70
41884;DHT22;27566;50.930;5.328;2023-11-21T08:25:54;12.20;90.10
41884;DHT22;27566;50.930;5.328;2023-11-21T08:28:21;12.30;90.00
41884;DHT22;27566;50.930;5.328;2023-11-21T08:30:52;12.30;89.90
41884;DHT22;27566;50.930;5.328;2023-11-21T08:33:19;12.30;90.00
41884;DHT22;27566;50.930;5.328;2023-11-21T08:35:45;12.40;89.90
41884;DHT22;27566;50.930;5.328;2023-11-21T08:38:12;12.40;89.70
41884;DHT22;27566;50.930;5.328;2023-11-21T08:40:38;12.40;89.60
41884;DHT22;27566;50.930;5.328;2023-11-21T08:43:04;12.50;89.60
41884;DHT22;27566;50.930;5.328;2023-11-21T08:45:30;12.60;89.60
41884;DHT22;27566;50.930;5.328;2023-11-21T08:47:56;12.60;89.50
41884;DHT22;27566;50.930;5.328;2023-11-21T08:50:22;12.70;89.70
41884;DHT22;27566;50.930;5.328;2023-11-21T08:52:50;12.80;89.40
41884;DHT22;27566;50.930;5.328;2023-11-21T08:55:16;12.80;88.90
41884;DHT22;27566;50.930;5.328;2023-11-21T08:57:44;12.90;88.10
41884;DHT22;27566;50.930;5.328;2023-11-21T09:00:12;12.90;88.60
41884;DHT22;27566;50.930;5.328;2023-11-21T09:02:39;13.00;88.70
41884;DHT22;27566;50.930;5.328;2023-11-21T09:05:08;13.00;88.70
41884;DHT22;27566;50.930;5.328;2023-11-21T09:07:35;13.10;88.20
41884;DHT22;27566;50.930;5.328;2023-11-21T09:10:02;13.10;88.10
41884;DHT22;27566;50.930;5.328;2023-11-21T09:12:28;13.10;87.80
41884;DHT22;27566;50.930;5.328;2023-11-21T09:14:54;13.10;87.70
41884;DHT22;27566;50.930;5.328;2023-11-21T09:17:20;13.20;87.30
41884;DHT22;27566;50.930;5.328;2023-11-21T09:19:46;13.20;88.00
41884;DHT22;27566;50.930;5.328;2023-11-21T09:22:16;13.30;87.90
41884;DHT22;27566;50.930;5.328;2023-11-21T09:24:41;13.40;87.90
41884;DHT22;27566;50.930;5.328;2023-11-21T09:27:08;13.60;88.00
41884;DHT22;27566;50.930;5.328;2023-11-21T09:29:35;13.70;87.60
41884;DHT22;27566;50.930;5.328;2023-11-21T09:32:01;13.80;87.10
41884;DHT22;27566;50.930;5.328;2023-11-21T09:34:27;13.90;86.70
41884;DHT22;27566;50.930;5.328;2023-11-21T09:36:53;13.90;86.40
41884;DHT22;27566;50.930;5.328;2023-11-21T09:39:19;13.90;86.20
41884;DHT22;27566;50.930;5.328;2023-11-21T09:41:55;14.00;86.50
41884;DHT22;27566;50.930;5.328;2023-11-21T09:46:59;14.20;84.90
41884;DHT22;27566;50.930;5.328;2023-11-21T09:49:26;14.20;85.00
41884;DHT22;27566;50.930;5.328;2023-11-21T09:51:55;14.30;84.90
41884;DHT22;27566;50.930;5.328;2023-11-21T09:54:24;14.40;84.60
41884;DHT22;27566;50.930;5.328;2023-11-21T09:56:50;14.40;84.30
41884;DHT22;27566;50.930;5.328;2023-11-21T09:59:16;14.40;84.00
41884;DHT22;27566;50.930;5.328;2023-11-21T10:01:43;14.30;84.00
41884;DHT22;27566;50.930;5.328;2023-11-21T10:04:09;14.30;83.90
41884;DHT22;27566;50.930;5.328;2023-11-21T10:06:39;14.30;83.60
41884;DHT22;27566;50.930;5.328;2023-11-21T10:09:11;14.40;83.60
41884;DHT22;27566;50.930;5.328;2023-11-21T10:11:42;14.40;83.10
41884;DHT22;27566;50.930;5.328;2023-11-21T10:14:12;14.60;82.30
41884;DHT22;27566;50.930;5.328;2023-11-21T10:16:41;14.50;82.70
41884;DHT22;27566;50.930;5.328;2023-11-21T10:19:10;14.60;82.40
41884;DHT22;27566;50.930;5.328;2023-11-21T10:21:38;14.60;82.20
41884;DHT22;27566;50.930;5.328;2023-11-21T10:24:05;14.60;81.70
41884;DHT22;27566;50.930;5.328;2023-11-21T10:26:32;14.60;81.60
41884;DHT22;27566;50.930;5.328;2023-11-21T10:29:00;14.50;81.40
41884;DHT22;27566;50.930;5.328;2023-11-21T10:31:30;14.40;80.90
41884;DHT22;27566;50.930;5.328;2023-11-21T10:34:16;14.40;81.50
41884;DHT22;27566;50.930;5.328;2023-11-21T10:36:42;14.40;81.60
41884;DHT22;27566;50.930;5.328;2023-11-21T10:39:08;14.40;81.60
41884;DHT22;27566;50.930;5.328;2023-11-21T10:41:37;14.30;81.20
41884;DHT22;27566;50.930;5.328;2023-11-21T10:44:04;14.40;81.50
41884;DHT22;27566;50.930;5.328;2023-11-21T10:46:31;14.40;81.60
41884;DHT22;27566;50.930;5.328;2023-11-21T10:48:57;14.30;81.60
41884;DHT22;27566;50.930;5.328;2023-11-21T10:51:23;14.30;81.60
41884;DHT22;27566;50.930;5.328;2023-11-21T10:53:53;14.30;82.10
41884;DHT22;27566;50.930;5.328;2023-11-21T10:56:23;14.40;82.20
41884;DHT22;27566;50.930;5.328;2023-11-21T10:58:50;14.30;81.90
41884;DHT22;27566;50.930;5.328;2023-11-21T11:01:20;14.40;81.30
41884;DHT22;27566;50.930;5.328;2023-11-21T11:03:47;14.40;82.10
41884;DHT22;27566;50.930;5.328;2023-11-21T11:06:14;14.40;82.60
41884;DHT22;27566;50.930;5.328;2023-11-21T11:08:41;14.50;82.80
41884;DHT22;27566;50.930;5.328;2023-11-21T11:11:07;14.50;82.80
41884;DHT22;27566;50.930;5.328;2023-11-21T11:13:35;14.50;82.50
41884;DHT22;27566;50.930;5.328;2023-11-21T11:16:03;14.40;82.50
41884;DHT22;27566;50.930;5.328;2023-11-21T11:18:33;14.20;82.70
41884;DHT22;27566;50.930;5.328;2023-11-21T11:26:36;13.90;83.80
41884;DHT22;27566;50.930;5.328;2023-11-21T11:34:36;13.80;84.70
41884;DHT22;27566;50.930;5.328;2023-11-21T11:37:07;13.90;85.20
41884;DHT22;27566;50.930;5.328;2023-11-21T11:39:38;13.90;85.30
41884;DHT22;27566;50.930;5.328;2023-11-21T11:42:07;14.00;85.50
41884;DHT22;27566;50.930;5.328;2023-11-21T11:47:15;13.90;84.40
41884;DHT22;27566;50.930;5.328;2023-11-21T11:55:00;13.80;85.10
41884;DHT22;27566;50.930;5.328;2023-11-21T11:57:26;13.90;84.80
41884;DHT22;27566;50.930;5.328;2023-11-21T12:00:09;13.90;85.30
41884;DHT22;27566;50.930;5.328;2023-11-21T12:02:42;13.90;84.70
41884;DHT22;27566;50.930;5.328;2023-11-21T12:05:11;13.90;84.30
41884;DHT22;27566;50.930;5.328;2023-11-21T12:07:52;13.90;84.80
41884;DHT22;27566;50.930;5.328;2023-11-21T12:10:21;14.00;83.70
41884;DHT22;27566;50.930;5.328;2023-11-21T12:12:49;14.00;84.20
41884;DHT22;27566;50.930;5.328;2023-11-21T12:15:16;14.00;84.00
41884;DHT22;27566;50.930;5.328;2023-11-21T12:17:43;14.00;83.80
41884;DHT22;27566;50.930;5.328;2023-11-21T12:20:10;13.80;84.40
41884;DHT22;27566;50.930;5.328;2023-11-21T12:22:46;13.40;85.50
41884;DHT22;27566;50.930;5.328;2023-11-21T12:25:14;13.20;86.00
41884;DHT22;27566;50.930;5.328;2023-11-21T12:27:45;13.20;86.80
41884;DHT22;27566;50.930;5.328;2023-11-21T12:30:12;13.10;87.50
41884;DHT22;27566;50.930;5.328;2023-11-21T12:32:52;13.00;88.40
41884;DHT22;27566;50.930;5.328;2023-11-21T12:35:22;13.10;89.40
41884;DHT22;27566;50.930;5.328;2023-11-21T12:37:50;13.10;90.00
41884;DHT22;27566;50.930;5.328;2023-11-21T12:40:17;13.10;90.10
41884;DHT22;27566;50.930;5.328;2023-11-21T12:42:46;13.10;89.80
41884;DHT22;27566;50.930;5.328;2023-11-21T12:47:50;13.00;90.10
41884;DHT22;27566;50.930;5.328;2023-11-21T12:50:23;12.80;90.10
41884;DHT22;27566;50.930;5.328;2023-11-21T12:52:50;12.70;90.30
41884;DHT22;27566;50.930;5.328;2023-11-21T12:55:23;12.70;90.60
41884;DHT22;27566;50.930;5.328;2023-11-21T12:57:53;12.60;90.90
41884;DHT22;27566;50.930;5.328;2023-11-21T13:03:09;12.70;91.40
41884;DHT22;27566;50.930;5.328;2023-11-21T13:05:39;12.80;91.50
41884;DHT22;27566;50.930;5.328;2023-11-21T13:08:08;12.90;91.30
41884;DHT22;27566;50.930;5.328;2023-11-21T13:10:43;12.90;91.60
41884;DHT22;27566;50.930;5.328;2023-11-21T13:13:12;13.00;91.60
41884;DHT22;27566;50.930;5.328;2023-11-21T13:15:51;13.00;91.40
41884;DHT22;27566;50.930;5.328;2023-11-21T13:18:18;13.00;91.40
41884;DHT22;27566;50.930;5.328;2023-11-21T13:20:47;12.90;91.30
41884;DHT22;27566;50.930;5.328;2023-11-21T13:23:13;12.90;91.20
41884;DHT22;27566;50.930;5.328;2023-11-21T13:25:42;12.90;91.10
41884;DHT22;27566;50.930;5.328;2023-11-21T13:28:08;12.90;91.10
41884;DHT22;27566;50.930;5.328;2023-11-21T13:30:54;12.80;91.10
41884;DHT22;27566;50.930;5.328;2023-11-21T13:33:21;13.00;91.00
41884;DHT22;27566;50.930;5.328;2023-11-21T13:35:53;12.90;91.30
41884;DHT22;27566;50.930;5.328;2023-11-21T13:38:21;13.10;90.90
41884;DHT22;27566;50.930;5.328;2023-11-21T13:40:50;13.10;91.20
41884;DHT22;27566;50.930;5.328;2023-11-21T13:43:20;13.20;90.70
41884;DHT22;27566;50.930;5.328;2023-11-21T13:45:48;13.20;90.80
41884;DHT22;27566;50.930;5.328;2023-11-21T13:48:23;13.20;90.20
41884;DHT22;27566;50.930;5.328;2023-11-21T13:51:12;13.10;89.80
41884;DHT22;27566;50.930;5.328;2023-11-21T13:53:46;13.10;90.20
41884;DHT22;27566;50.930;5.328;2023-11-21T13:56:15;13.10;90.20
41884;DHT22;27566;50.930;5.328;2023-11-21T13:58:45;13.00;90.10
41884;DHT22;27566;50.930;5.328;2023-11-21T14:01:21;13.10;90.30
41884;DHT22;27566;50.930;5.328;2023-11-21T14:04:00;13.10;90.10
41884;DHT22;27566;50.930;5.328;2023-11-21T14:06:42;13.00;90.30
41884;DHT22;27566;50.930;5.328;2023-11-21T14:09:22;13.00;90.20
41884;DHT22;27566;50.930;5.328;2023-11-21T14:11:53;13.00;90.30
41884;DHT22;27566;50.930;5.328;2023-11-21T14:14:20;13.00;90.40
41884;DHT22;27566;50.930;5.328;2023-11-21T14:16:47;13.00;90.20
41884;DHT22;27566;50.930;5.328;2023-11-21T14:19:13;13.00;90.30
41884;DHT22;27566;50.930;5.328;2023-11-21T14:21:43;13.00;90.40
41884;DHT22;27566;50.930;5.328;2023-11-21T14:24:10;13.00;90.40
41884;DHT22;27566;50.930;5.328;2023-11-21T14:26:42;13.00;90.30
41884;DHT22;27566;50.930;5.328;2023-11-21T14:29:09;13.10;90.10
41884;DHT22;27566;50.930;5.328;2023-11-21T14:31:38;13.10;90.10
41884;DHT22;27566;50.930;5.328;2023-11-21T14:34:04;13.00;90.10
41884;DHT22;27566;50.930;5.328;2023-11-21T14:36:33;13.10;89.30
41884;DHT22;27566;50.930;5.328;2023-11-21T14:38:59;13.00;90.00
41884;DHT22;27566;50.930;5.328;2023-11-21T14:41:25;12.80;89.40
41884;DHT22;27566;50.930;5.328;2023-11-21T14:43:53;13.10;90.10
41884;DHT22;27566;50.930;5.328;2023-11-21T14:46:20;13.20;90.10
41884;DHT22;27566;50.930;5.328;2023-11-21T14:51:33;13.20;89.50
41884;DHT22;27566;50.930;5.328;2023-11-21T14:54:09;13.20;89.80
41884;DHT22;27566;50.930;5.328;2023-11-21T14:56:35;13.30;89.00
41884;DHT22;27566;50.930;5.328;2023-11-21T14:59:04;13.30;88.30
41884;DHT22;27566;50.930;5.328;2023-11-21T15:01:38;13.20;87.10
41884;DHT22;27566;50.930;5.328;2023-11-21T15:04:21;13.30;87.30
41884;DHT22;27566;50.930;5.328;2023-11-21T15:07:13;13.20;87.80
41884;DHT22;27566;50.930;5.328;2023-11-21T15:09:39;13.20;88.20
41884;DHT22;27566;50.930;5.328;2023-11-21T15:12:10;13.20;87.40
41884;DHT22;27566;50.930;5.328;2023-11-21T15:14:47;13.20;87.40
41884;DHT22;27566;50.930;5.328;2023-11-21T15:17:15;13.10;86.80
41884;DHT22;27566;50.930;5.328;2023-11-21T15:19:55;13.10;87.60
41884;DHT22;27566;50.930;5.328;2023-11-21T15:22:21;12.80;88.20
41884;DHT22;27566;50.930;5.328;2023-11-21T15:24:50;12.90;89.50
41884;DHT22;27566;50.930;5.328;2023-11-21T15:27:19;12.80;89.10
41884;DHT22;27566;50.930;5.328;2023-11-21T15:32:12;12.80;88.60
41884;DHT22;27566;50.930;5.328;2023-11-21T15:34:38;12.80;89.30
41884;DHT22;27566;50.930;5.328;2023-11-21T15:37:07;12.80;88.40
41884;DHT22;27566;50.930;5.328;2023-11-21T15:39:36;12.80;89.20
41884;DHT22;27566;50.930;5.328;2023-11-21T15:42:03;12.80;88.90
41884;DHT22;27566;50.930;5.328;2023-11-21T15:44:29;12.80;88.80
41884;DHT22;27566;50.930;5.328;2023-11-21T15:46:58;12.70;88.50
41884;DHT22;27566;50.930;5.328;2023-11-21T15:49:24;12.60;89.00
41884;DHT22;27566;50.930;5.328;2023-11-21T15:51:52;12.60;88.90
41884;DHT22;27566;50.930;5.328;2023-11-21T15:54:20;12.70;89.80
41884;DHT22;27566;50.930;5.328;2023-11-21T15:56:51;12.60;88.60
41884;DHT22;27566;50.930;5.328;2023-11-21T15:59:25;12.70;89.30
41884;DHT22;27566;50.930;5.328;2023-11-21T16:01:56;12.60;88.80
41884;DHT22;27566;50.930;5.328;2023-11-21T16:04:22;12.60;89.60
41884;DHT22;27566;50.930;5.328;2023-11-21T16:06:49;12.70;88.40
41884;DHT22;27566;50.930;5.328;2023-11-21T16:09:15;12.60;88.90
41884;DHT22;27566;50.930;5.328;2023-11-21T16:11:57;12.60;88.80
41884;DHT22;27566;50.930;5.328;2023-11-21T16:14:29;12.60;88.80
41884;DHT22;27566;50.930;5.328;2023-11-21T16:17:01;12.60;88.90